LIMW/AOT METAR and TAF weather

Enter ICAO airport designator
Station Type Date Time Source
LIMW METAR 2022/06/30 14:20 UTC NOAA

LIMW 301420Z AUTO 11017KT 9999 FEW150/// 27/16 Q1012


Station Type Date Time Source
LIMW Decoded METAR 2022/06/30 14:20 UTC NOAA

Station name not available
Jun 30, 2022 - 10:20 AM EDT / 2022.06.30 1420 UTC
Wind: from the ESE (110 degrees) at 20 MPH (17 KT):0
Visibility: greater than 7 mile(s):0
Sky conditions: mostly clear
Temperature: 80 F (27 C)
Dew Point: 60 F (16 C)
Relative Humidity: 50%
Pressure (altimeter): 29.88 in. Hg (1012 hPa)
ob: LIMW 301420Z AUTO 11017KT 9999 FEW150/// 27/16 Q1012
cycle: 14

Station Type Date Time Source
LIMW TAF UTC NOAA

Error!

Example: see airport list